Wednesday, February 22, 2017, 12:29 PM EST

KOFP, Hanover County Municipal

Location: Ashland, VA, United States Lat: 37.7
Local Time: 12:29 PM EST (17:29 GMT) Lon: -77.433
Time Zone: US/Eastern Elev: 203 ft

Show me the last for .
Show Decoded

2017-02-22 11:54 METAR KOFP 221654Z AUTO 21005KT 9SM OVC070 13/07 A3001 RMK AO2 SLP163 T01280067
                 =
2017-02-22 10:54 METAR KOFP 221554Z AUTO 24005KT 8SM SCT070 OVC080 13/07 A3004 RMK AO2 SLP173
                 T01280072 =
2017-02-22 09:54 METAR KOFP 221454Z AUTO VRB05KT 8SM FEW030 BKN070 OVC085 12/08 A3006 RMK AO2
                 RAB27E40 SLP180 P0000 60000 T01170078 50001 =
2017-02-22 08:54 METAR KOFP 221354Z AUTO 23005KT 8SM FEW030 BKN090 BKN120 10/07 A3007 RMK AO2
                 SLP181 T01000067 =
2017-02-22 07:54 METAR KOFP 221254Z AUTO 19004KT 8SM OVC095 08/06 A3007 RMK AO2 SLP182 T00830056
                 =
2017-02-22 06:54 METAR KOFP 221154Z AUTO 00000KT 10SM FEW031 06/03 A3006 RMK AO2 SLP179 T00560033
                 10072 20033 55000 =
2017-02-22 05:54 METAR KOFP 221054Z AUTO 20003KT 10SM CLR 07/04 A3006 RMK AO2 SLP179 T00720039 =
2017-02-22 04:54 METAR KOFP 220954Z AUTO 16003KT 9SM CLR 05/03 A3005 RMK AO2 SLP177 T00500028 =
2017-02-22 03:54 METAR KOFP 220854Z AUTO 00000KT 10SM CLR 05/02 A3006 RMK AO2 SLP179 T00500022
                 56023 =
2017-02-22 02:54 METAR KOFP 220754Z AUTO 16004KT 10SM CLR 04/02 A3006 RMK AO2 SLP180 T00440022 =
2017-02-22 01:54 METAR KOFP 220654Z AUTO 00000KT 10SM CLR 05/02 A3009 RMK AO2 SLP188 T00500022 =
2017-02-22 00:54 METAR KOFP 220554Z AUTO 00000KT 10SM CLR 05/02 A3013 RMK AO2 SLP202 T00500022
                 10111 20050 56011 =
2017-02-21 23:54 METAR KOFP 220454Z AUTO 00000KT 10SM CLR 07/03 A3013 RMK AO2 SLP204 T00720028
                 401560017 =
2017-02-21 22:54 METAR KOFP 220354Z AUTO VRB03KT 10SM CLR 08/02 A3014 RMK AO2 SLP206 T00780022 =
2017-02-21 21:54 METAR KOFP 220254Z AUTO 15005KT 10SM CLR 08/02 A3016 RMK AO2 SLP213 T00830017
                 58007 =
2017-02-21 20:54 METAR KOFP 220154Z AUTO 14003KT 10SM CLR 09/02 A3018 RMK AO2 SLP220 T00940017 =
2017-02-21 19:54 METAR KOFP 220054Z AUTO 11004KT 10SM CLR 09/01 A3018 RMK AO2 SLP221 T00940011 =
2017-02-21 18:54 METAR KOFP 212354Z AUTO 00000KT 10SM CLR 09/02 A3018 RMK AO2 SLP220 T00940017
                 10156 20094 57001 =
2017-02-21 17:54 METAR KOFP 212254Z AUTO 00000KT 10SM CLR 12/01 A3018 RMK AO2 SLP221 T01220011 =
2017-02-21 16:54 METAR KOFP 212154Z AUTO 13004KT 10SM CLR 14/M01 A3018 RMK AO2 SLP220 T01391006 =
2017-02-21 15:54 METAR KOFP 212054Z AUTO 16008KT 10SM CLR 15/M01 A3018 RMK AO2 SLP221 T01501006
                 56026 =
2017-02-21 14:54 METAR KOFP 211954Z AUTO 13005KT 10SM CLR 14/00 A3020 RMK AO2 SLP227 T01440000 =
2017-02-21 13:54 METAR KOFP 211854Z AUTO 17006KT 10SM CLR 14/01 A3023 RMK AO2 SLP235 T01390011 =
2017-02-21 12:54 METAR KOFP 211754Z AUTO VRB05KT 10SM CLR 13/01 A3026 RMK AO2 SLP247 T01330011
                 10139 20017 58029 =

Support USWX by starting your Amazon purchase here.